createdAt,value
2022-10-17T04:01:04.757Z,1.00
2022-10-17T04:02:04.963Z,0.80
2022-10-17T04:03:04.554Z,0.80
2022-10-17T04:04:04.703Z,0.80
2022-10-17T04:05:04.548Z,0.90
2022-10-17T04:06:04.863Z,1.10
2022-10-17T04:07:04.551Z,1.00
2022-10-17T04:08:05.019Z,0.90
2022-10-17T04:09:04.520Z,0.70
2022-10-17T04:10:04.443Z,1.00
2022-10-17T04:11:04.450Z,1.10
2022-10-17T04:12:04.411Z,1.10
2022-10-17T04:13:04.394Z,1.10
2022-10-17T04:14:04.361Z,1.60
2022-10-17T04:15:04.492Z,1.10
2022-10-17T04:16:04.541Z,1.10
2022-10-17T04:17:11.351Z,1.00
2022-10-17T04:19:04.283Z,0.90
2022-10-17T04:20:04.269Z,1.00
2022-10-17T04:21:04.319Z,0.90
2022-10-17T04:22:04.250Z,0.80
2022-10-17T04:23:04.233Z,1.00
2022-10-17T04:24:04.228Z,1.00
2022-10-17T04:25:04.225Z,1.00
2022-10-17T04:26:04.200Z,1.00
2022-10-17T04:27:04.241Z,1.00
2022-10-17T04:28:04.178Z,1.00
2022-10-17T04:29:04.937Z,0.70
2022-10-17T04:30:04.219Z,0.90
2022-10-17T04:31:04.225Z,1.00
2022-10-17T04:32:04.137Z,0.80
2022-10-17T04:33:04.168Z,1.10
2022-10-17T04:34:04.095Z,1.10
2022-10-17T04:35:04.076Z,1.20
2022-10-17T04:36:04.066Z,1.00
2022-10-17T04:37:04.055Z,0.80
2022-10-17T04:38:04.044Z,0.90
2022-10-17T04:39:04.143Z,1.00
2022-10-17T04:40:04.028Z,1.00
2022-10-17T04:41:04.007Z,1.20
2022-10-17T04:42:03.997Z,0.90
2022-10-17T04:43:03.974Z,0.80
2022-10-17T04:44:03.963Z,0.70
2022-10-17T04:45:03.993Z,0.90
2022-10-17T04:46:03.935Z,1.00
2022-10-17T04:47:03.927Z,0.80
2022-10-17T04:48:03.913Z,0.70
2022-10-17T04:49:03.912Z,0.70
2022-10-17T04:50:03.886Z,0.80
2022-10-17T04:51:03.931Z,0.80
2022-10-17T04:52:03.852Z,0.70
2022-10-17T04:53:03.841Z,0.70
2022-10-17T04:54:03.831Z,0.90
2022-10-17T04:55:03.824Z,1.00
2022-10-17T04:56:03.820Z,1.20
2022-10-17T04:57:03.835Z,1.30
2022-10-17T04:58:03.796Z,0.90
2022-10-17T04:59:03.770Z,0.90
2022-10-17T05:00:03.803Z,1.10
2022-10-17T05:01:03.808Z,0.80
2022-10-17T05:02:03.729Z,1.10
2022-10-17T05:03:03.757Z,1.10
2022-10-17T05:04:03.729Z,0.90
2022-10-17T05:05:03.689Z,1.10
2022-10-17T05:06:03.690Z,1.00
2022-10-17T05:07:03.668Z,1.20
2022-10-17T05:08:03.652Z,1.40
2022-10-17T05:09:03.705Z,1.10
2022-10-17T05:10:03.638Z,0.80
2022-10-17T05:11:03.638Z,0.90
2022-10-17T05:12:05.453Z,1.10
2022-10-17T05:13:03.596Z,0.90
2022-10-17T05:14:03.574Z,1.40
2022-10-17T05:15:03.707Z,1.00
2022-10-17T05:16:03.548Z,1.20
2022-10-17T05:17:03.532Z,0.80
2022-10-17T05:18:03.530Z,1.10
2022-10-17T05:19:03.509Z,1.10
2022-10-17T05:20:03.504Z,0.90
2022-10-17T05:21:03.536Z,0.90
2022-10-17T05:22:03.481Z,0.90
2022-10-17T05:23:03.462Z,0.80
2022-10-17T05:24:03.446Z,1.00
2022-10-17T05:25:03.423Z,1.00
2022-10-17T05:26:03.424Z,1.10
2022-10-17T05:27:03.463Z,0.90
2022-10-17T05:28:03.388Z,0.80
2022-10-17T05:29:03.426Z,1.30
2022-10-17T05:30:03.379Z,0.90
2022-10-17T05:31:03.364Z,1.00
2022-10-17T05:32:03.367Z,0.90
2022-10-17T05:33:03.363Z,1.00
2022-10-17T05:34:03.331Z,1.20
2022-10-17T05:35:03.301Z,1.00
2022-10-17T05:36:03.317Z,1.00
2022-10-17T05:37:03.270Z,1.20
2022-10-17T05:38:03.260Z,0.90
2022-10-17T05:39:03.309Z,0.80
2022-10-17T05:40:03.239Z,1.20
2022-10-17T05:41:03.277Z,0.70
2022-10-17T05:42:03.212Z,0.80
2022-10-17T05:43:03.190Z,0.60
2022-10-17T05:44:05.461Z,0.70
2022-10-17T05:45:03.242Z,1.00
2022-10-17T05:46:03.158Z,0.90
2022-10-17T05:47:03.189Z,1.10
2022-10-17T05:48:03.133Z,0.80
2022-10-17T05:49:10.694Z,0.90
2022-10-17T05:50:04.136Z,0.90
2022-10-17T05:51:03.089Z,0.80
2022-10-17T05:52:03.080Z,0.80
2022-10-17T05:53:03.059Z,1.10
2022-10-17T05:54:03.053Z,1.00
2022-10-17T05:55:03.086Z,0.90
2022-10-17T05:56:03.034Z,0.90
2022-10-17T05:57:03.026Z,1.20
2022-10-17T05:58:03.013Z,1.40
2022-10-17T05:59:02.976Z,1.10
2022-10-17T06:00:02.985Z,0.70
2022-10-17T06:01:03.005Z,0.80
2022-10-17T06:02:03.037Z,1.20
2022-10-17T06:03:02.941Z,1.30
2022-10-17T06:04:02.924Z,0.80
2022-10-17T06:05:02.916Z,1.00
2022-10-17T06:06:02.895Z,1.20
2022-10-17T06:07:02.933Z,1.00
2022-10-17T06:08:02.873Z,1.10
2022-10-17T06:09:02.900Z,1.20
2022-10-17T06:10:02.854Z,0.90
2022-10-17T06:11:06.070Z,1.10
2022-10-17T06:12:03.949Z,0.80
2022-10-17T06:13:02.805Z,1.20
2022-10-17T06:14:02.792Z,0.90
2022-10-17T06:15:02.794Z,0.70
2022-10-17T06:16:02.780Z,0.90
2022-10-17T06:17:02.761Z,0.70
2022-10-17T06:18:02.798Z,0.90
2022-10-17T06:19:02.723Z,0.90
2022-10-17T06:20:02.721Z,0.70
2022-10-17T06:21:02.700Z,0.80
2022-10-17T06:22:02.702Z,0.70
2022-10-17T06:23:02.677Z,0.80
2022-10-17T06:24:02.691Z,0.90
2022-10-17T06:25:02.706Z,0.70
2022-10-17T06:26:02.647Z,0.80
2022-10-17T06:27:02.627Z,0.70
2022-10-17T06:28:02.619Z,0.90
2022-10-17T06:29:02.740Z,0.80
2022-10-17T06:30:02.604Z,0.80
2022-10-17T06:31:02.756Z,1.20
2022-10-17T06:32:02.589Z,1.20
2022-10-17T06:33:02.555Z,1.10
2022-10-17T06:34:02.546Z,0.90
2022-10-17T06:35:02.527Z,1.10
2022-10-17T06:36:02.509Z,0.90
2022-10-17T06:37:02.566Z,1.20
2022-10-17T06:38:02.487Z,0.80
2022-10-17T06:39:02.513Z,0.80
2022-10-17T06:40:02.499Z,0.90
2022-10-17T06:41:02.456Z,0.70
2022-10-17T06:42:02.437Z,0.90
2022-10-17T06:43:02.638Z,1.00
2022-10-17T06:44:02.421Z,0.80
2022-10-17T06:45:02.396Z,1.10
2022-10-17T06:46:02.389Z,0.80
2022-10-17T06:47:02.373Z,0.80
2022-10-17T06:48:02.355Z,1.10
2022-10-17T06:49:02.404Z,1.00
2022-10-17T06:50:02.334Z,1.00
2022-10-17T06:51:02.314Z,1.00
2022-10-17T06:52:02.488Z,0.80
2022-10-17T06:53:02.289Z,0.90
2022-10-17T06:54:02.274Z,1.20
2022-10-17T06:56:02.250Z,1.30
2022-10-17T06:57:02.234Z,1.10
2022-10-17T06:58:02.259Z,1.40
2022-10-17T06:59:02.212Z,1.20
2022-10-17T07:00:02.200Z,1.20
2022-10-17T07:01:02.314Z,1.20
2022-10-17T07:02:02.186Z,0.90
2022-10-17T07:03:02.212Z,1.10
2022-10-17T07:04:02.170Z,0.90
2022-10-17T07:05:02.159Z,1.10
2022-10-17T07:06:02.120Z,1.30
2022-10-17T07:07:02.128Z,1.20
2022-10-17T07:08:02.092Z,1.20
2022-10-17T07:09:02.427Z,1.10
2022-10-17T07:10:02.071Z,1.20
2022-10-17T07:11:02.052Z,1.00
2022-10-17T07:12:02.053Z,1.10
2022-10-17T07:13:02.030Z,1.20
2022-10-17T07:14:02.018Z,1.10
2022-10-17T07:15:02.063Z,1.20
2022-10-17T07:16:02.031Z,1.40
2022-10-17T07:17:01.977Z,1.30
2022-10-17T07:18:01.968Z,1.40
2022-10-17T07:19:01.940Z,1.20
2022-10-17T07:20:01.958Z,1.20
2022-10-17T07:21:01.979Z,1.00
2022-10-17T07:22:01.911Z,1.10
2022-10-17T07:23:01.890Z,1.10
2022-10-17T07:24:01.878Z,1.20
2022-10-17T07:25:01.865Z,1.30
2022-10-17T07:26:01.868Z,1.30
2022-10-17T07:27:01.921Z,1.00
2022-10-17T07:28:01.827Z,1.00
2022-10-17T07:29:01.934Z,1.10
2022-10-17T07:30:01.799Z,1.80
2022-10-17T07:31:01.788Z,1.30
2022-10-17T07:32:01.774Z,1.50
2022-10-17T07:33:01.808Z,1.20
2022-10-17T07:34:01.749Z,1.30
2022-10-17T07:35:01.727Z,1.10
2022-10-17T07:36:01.727Z,1.30
2022-10-17T07:37:01.706Z,1.20
2022-10-17T07:38:01.697Z,1.00
2022-10-17T07:39:01.726Z,1.20
2022-10-17T07:40:01.667Z,1.50
2022-10-17T07:41:01.655Z,1.50
2022-10-17T07:42:01.648Z,1.20
2022-10-17T07:43:01.625Z,1.40
2022-10-17T07:44:01.615Z,1.40
2022-10-17T07:45:01.811Z,1.40
2022-10-17T07:46:01.612Z,1.80
2022-10-17T07:47:01.577Z,1.20
2022-10-17T07:48:01.576Z,1.30
2022-10-17T07:49:01.549Z,1.70
2022-10-17T07:50:01.534Z,1.30
2022-10-17T07:51:01.577Z,1.10
2022-10-17T07:52:01.512Z,1.30
2022-10-17T07:53:01.494Z,1.10
2022-10-17T07:54:01.498Z,1.00
2022-10-17T07:55:01.464Z,1.20
2022-10-17T07:56:01.484Z,1.20
2022-10-17T07:57:01.506Z,1.10
2022-10-17T07:58:01.443Z,0.90
2022-10-17T07:59:03.839Z,0.90
2022-10-17T08:00:02.413Z,1.10
2022-10-17T08:02:01.399Z,0.90
2022-10-17T08:03:01.423Z,0.90
2022-10-17T08:04:01.354Z,1.00
2022-10-17T08:05:01.343Z,1.00
2022-10-17T08:06:01.331Z,1.10
2022-10-17T08:07:18.241Z,0.90
2022-10-17T08:08:02.362Z,0.90
2022-10-17T08:09:01.291Z,1.00
2022-10-17T08:10:01.328Z,1.00
2022-10-17T08:11:01.291Z,0.80
2022-10-17T08:12:01.250Z,1.00
2022-10-17T08:13:01.232Z,1.30
2022-10-17T08:14:01.391Z,0.90
2022-10-17T08:15:01.202Z,0.80
2022-10-17T08:16:01.214Z,0.90
2022-10-17T08:17:01.171Z,0.90
2022-10-17T08:18:01.170Z,1.00
2022-10-17T08:19:01.236Z,0.90
2022-10-17T08:20:01.209Z,1.10
2022-10-17T08:21:01.181Z,0.90
2022-10-17T08:22:01.109Z,1.10
2022-10-17T08:23:01.139Z,1.00
2022-10-17T08:24:01.089Z,0.90
2022-10-17T08:25:01.082Z,0.90
2022-10-17T08:26:01.120Z,1.10
2022-10-17T08:27:01.048Z,1.10
2022-10-17T08:28:01.089Z,1.00
2022-10-17T08:29:01.105Z,1.10
2022-10-17T08:30:01.010Z,0.90
2022-10-17T08:31:01.152Z,1.00
2022-10-17T08:32:01.927Z,0.90
2022-10-17T08:33:00.973Z,1.00
2022-10-17T08:34:00.961Z,0.90
2022-10-17T08:35:00.946Z,1.00
2022-10-17T08:36:00.935Z,1.10
2022-10-17T08:37:00.948Z,1.00
2022-10-17T08:38:03.422Z,1.00
2022-10-17T08:39:00.890Z,1.10
2022-10-17T08:40:00.898Z,0.70
2022-10-17T08:41:00.877Z,1.00
2022-10-17T08:42:00.911Z,0.70
2022-10-17T08:43:00.837Z,1.00
2022-10-17T08:44:00.948Z,0.80
2022-10-17T08:45:00.827Z,1.00
2022-10-17T08:46:00.808Z,1.10
2022-10-17T08:47:00.798Z,1.20
2022-10-17T08:48:00.786Z,0.90
2022-10-17T08:49:00.757Z,0.90
2022-10-17T08:50:00.805Z,1.00
2022-10-17T08:51:00.735Z,1.00
2022-10-17T08:52:00.726Z,1.00
2022-10-17T08:53:00.706Z,1.10
2022-10-17T08:54:00.697Z,0.90
2022-10-17T08:55:00.714Z,1.10
2022-10-17T08:56:00.715Z,0.90
2022-10-17T08:57:00.664Z,0.90
2022-10-17T08:58:00.647Z,1.00
2022-10-17T08:59:00.636Z,1.00
2022-10-17T09:00:00.615Z,0.80
2022-10-17T09:01:00.603Z,1.00
2022-10-17T09:02:00.654Z,0.90
2022-10-17T09:03:00.591Z,0.90
2022-10-17T09:04:00.568Z,1.10
2022-10-17T09:05:00.596Z,0.90
2022-10-17T09:06:00.542Z,0.90
2022-10-17T09:07:00.530Z,0.90
2022-10-17T09:08:00.551Z,0.70
2022-10-17T09:09:00.495Z,0.90
2022-10-17T09:10:00.492Z,1.20
2022-10-17T09:11:00.482Z,1.10
2022-10-17T09:12:00.453Z,0.90
2022-10-17T09:13:05.364Z,1.10
2022-10-17T09:14:01.516Z,0.90
2022-10-17T09:15:00.412Z,1.00
2022-10-17T09:16:00.406Z,0.90
2022-10-17T09:17:00.402Z,0.70
2022-10-17T09:18:00.371Z,0.80
2022-10-17T09:19:00.368Z,1.00
2022-10-17T09:20:00.404Z,0.70
2022-10-17T09:21:00.331Z,0.90
2022-10-17T09:22:00.321Z,1.00
2022-10-17T09:23:00.407Z,0.80
2022-10-17T09:24:09.392Z,0.60
2022-10-17T09:25:01.421Z,0.70
2022-10-17T09:26:00.271Z,0.80
2022-10-17T09:27:00.260Z,0.70
2022-10-17T09:28:00.241Z,0.80
2022-10-17T09:29:00.292Z,0.60
2022-10-17T09:30:00.222Z,1.00
2022-10-17T09:31:00.263Z,0.80
2022-10-17T09:32:00.207Z,0.90
2022-10-17T09:33:00.180Z,1.00
2022-10-17T09:34:00.176Z,0.80
2022-10-17T09:35:00.150Z,0.70
2022-10-17T09:36:00.139Z,0.90
2022-10-17T09:37:00.189Z,0.80
2022-10-17T09:38:00.139Z,0.80
2022-10-17T09:39:00.104Z,0.90
2022-10-17T09:40:00.102Z,0.80
2022-10-17T09:41:00.145Z,0.70
2022-10-17T09:42:00.082Z,0.70
2022-10-17T09:43:00.096Z,0.70
2022-10-17T09:44:00.035Z,0.90
2022-10-17T09:45:00.018Z,0.60
2022-10-17T09:46:00.077Z,0.70
2022-10-17T09:46:59.988Z,0.70
2022-10-17T09:48:01.702Z,0.70
2022-10-17T09:49:00.010Z,0.80
2022-10-17T09:50:00.114Z,0.70
2022-10-17T09:51:14.750Z,0.70
2022-10-17T09:52:00.918Z,0.60
2022-10-17T09:52:59.917Z,0.60
2022-10-17T09:53:59.898Z,0.60
2022-10-17T09:54:59.887Z,0.90
2022-10-17T09:56:00.076Z,0.70
2022-10-17T09:56:59.871Z,0.80
2022-10-17T09:57:59.851Z,0.70
2022-10-17T09:58:59.838Z,0.80
2022-10-17T09:59:59.927Z,0.90
2022-10-17T10:00:59.861Z,0.60
2022-10-17T10:01:59.878Z,0.80
2022-10-17T10:02:59.788Z,0.70
2022-10-17T10:03:59.776Z,0.60
2022-10-17T10:05:05.038Z,0.80
2022-10-17T10:06:00.755Z,0.80
2022-10-17T10:06:59.729Z,0.70
2022-10-17T10:07:59.767Z,0.80
2022-10-17T10:08:59.709Z,0.80
2022-10-17T10:09:59.704Z,0.70
2022-10-17T10:10:59.677Z,0.70
2022-10-17T10:11:59.666Z,0.60
2022-10-17T10:12:59.658Z,0.70
2022-10-17T10:13:59.668Z,0.80
2022-10-17T10:14:59.631Z,0.60
2022-10-17T10:15:59.618Z,0.70
2022-10-17T10:16:59.605Z,0.90
2022-10-17T10:17:59.594Z,0.50
2022-10-17T10:18:59.592Z,0.70
2022-10-17T10:19:59.606Z,0.60
2022-10-17T10:20:59.559Z,0.70
2022-10-17T10:21:59.537Z,0.70
2022-10-17T10:22:59.536Z,0.70
2022-10-17T10:23:59.508Z,0.80
2022-10-17T10:24:59.505Z,0.70
2022-10-17T10:25:59.558Z,0.60
2022-10-17T10:26:59.485Z,0.90
2022-10-17T10:28:01.389Z,0.70
2022-10-17T10:28:59.541Z,0.70
2022-10-17T10:29:59.437Z,0.70
2022-10-17T10:30:59.417Z,1.00
2022-10-17T10:31:59.474Z,0.70
2022-10-17T10:32:59.404Z,0.80
2022-10-17T10:33:59.376Z,0.80
2022-10-17T10:34:59.369Z,0.70
2022-10-17T10:35:59.365Z,0.80
2022-10-17T10:36:59.343Z,1.00
2022-10-17T10:37:59.377Z,0.80
2022-10-17T10:39:02.426Z,0.80
2022-10-17T10:40:00.311Z,0.70
2022-10-17T10:40:59.293Z,0.90
2022-10-17T10:41:59.282Z,0.70
2022-10-17T10:43:04.010Z,0.80
2022-10-17T10:44:00.284Z,0.80
2022-10-17T10:44:59.239Z,0.60
2022-10-17T10:45:59.235Z,0.70
2022-10-17T10:46:59.225Z,0.60
2022-10-17T10:47:59.195Z,0.80
2022-10-17T10:48:59.183Z,0.70
2022-10-17T10:49:59.234Z,0.70
2022-10-17T10:50:59.154Z,0.60
2022-10-17T10:51:59.144Z,0.80
2022-10-17T10:52:59.123Z,0.80
2022-10-17T10:53:59.116Z,0.60
2022-10-17T10:54:59.122Z,0.80
2022-10-17T10:55:59.135Z,0.80
2022-10-17T10:56:59.079Z,0.80
2022-10-17T10:57:59.062Z,0.90
2022-10-17T10:58:59.043Z,0.80
2022-10-17T10:59:59.033Z,0.80
2022-10-17T11:00:59.061Z,0.80
2022-10-17T11:01:59.166Z,0.80
2022-10-17T11:03:01.221Z,0.80
2022-10-17T11:03:59.005Z,0.70
2022-10-17T11:04:58.993Z,0.90
2022-10-17T11:05:58.982Z,0.70
2022-10-17T11:06:58.965Z,0.90
2022-10-17T11:07:58.991Z,0.70
2022-10-17T11:08:58.920Z,0.80
2022-10-17T11:09:58.922Z,0.70
2022-10-17T11:10:58.899Z,0.80
2022-10-17T11:11:58.880Z,0.80
2022-10-17T11:12:58.876Z,0.70
2022-10-17T11:13:58.924Z,0.60
2022-10-17T11:14:58.850Z,0.90
2022-10-17T11:15:58.832Z,0.60
2022-10-17T11:16:58.819Z,0.80
2022-10-17T11:17:58.806Z,0.60
2022-10-17T11:18:58.790Z,0.60
2022-10-17T11:19:58.822Z,0.60
2022-10-17T11:20:58.762Z,1.00
2022-10-17T11:21:58.807Z,0.70
2022-10-17T11:22:58.732Z,0.90
2022-10-17T11:23:58.732Z,0.70
2022-10-17T11:24:58.710Z,0.90
2022-10-17T11:25:58.868Z,0.80
2022-10-17T11:26:58.701Z,0.60
2022-10-17T11:28:02.307Z,0.80
2022-10-17T11:28:59.785Z,0.70
2022-10-17T11:29:58.642Z,0.70
2022-10-17T11:30:58.633Z,0.60
2022-10-17T11:31:58.652Z,0.70
2022-10-17T11:32:58.609Z,0.70
2022-10-17T11:33:58.594Z,0.60
2022-10-17T11:34:58.585Z,0.70
2022-10-17T11:35:59.240Z,0.80
2022-10-17T11:36:58.590Z,0.70
2022-10-17T11:37:58.543Z,0.60
2022-10-17T11:38:58.527Z,0.70
2022-10-17T11:39:58.520Z,0.70
2022-10-17T11:40:58.500Z,0.70
2022-10-17T11:42:00.875Z,0.70
2022-10-17T11:42:58.517Z,0.90
2022-10-17T11:43:58.459Z,0.50
2022-10-17T11:44:58.463Z,0.70
2022-10-17T11:45:58.443Z,0.70
2022-10-17T11:46:58.491Z,0.80
2022-10-17T11:47:58.465Z,0.70
2022-10-17T11:48:58.430Z,0.70
2022-10-17T11:49:58.559Z,0.70
2022-10-17T11:52:01.591Z,0.60
2022-10-17T11:52:58.738Z,0.70
2022-10-17T11:53:58.331Z,0.60
2022-10-17T11:54:58.329Z,0.50
2022-10-17T11:55:58.323Z,0.50
2022-10-17T11:56:58.303Z,0.70
2022-10-17T11:57:58.311Z,0.60
2022-10-17T11:58:58.269Z,0.80
2022-10-17T11:59:58.463Z,0.70
2022-10-17T12:00:58.241Z,0.70
2022-10-17T12:01:58.236Z,0.80
2022-10-17T12:02:58.247Z,0.70
2022-10-17T12:03:58.269Z,0.70
2022-10-17T12:04:58.190Z,0.70
2022-10-17T12:05:58.168Z,0.70
2022-10-17T12:06:58.167Z,0.60
2022-10-17T12:07:58.216Z,0.90
2022-10-17T12:08:58.139Z,0.80
2022-10-17T12:09:58.780Z,0.60
2022-10-17T12:10:58.248Z,0.70
2022-10-17T12:11:58.138Z,0.60
2022-10-17T12:12:58.119Z,0.70
2022-10-17T12:13:58.128Z,0.50
2022-10-17T12:14:58.060Z,0.60
2022-10-17T12:15:58.079Z,0.70
2022-10-17T12:16:58.036Z,0.70
2022-10-17T12:17:58.134Z,0.60
2022-10-17T12:18:58.012Z,0.80
2022-10-17T12:19:58.068Z,0.80
2022-10-17T12:20:58.018Z,0.60
2022-10-17T12:21:57.978Z,0.60
2022-10-17T12:22:57.958Z,0.60
2022-10-17T12:23:57.939Z,0.70
2022-10-17T12:24:57.928Z,0.80
2022-10-17T12:26:01.165Z,0.80
2022-10-17T12:26:58.914Z,0.50
2022-10-17T12:27:57.917Z,0.70
2022-10-17T12:28:57.928Z,0.60
2022-10-17T12:29:57.857Z,0.70
2022-10-17T12:30:57.851Z,0.90
2022-10-17T12:31:57.828Z,0.50
2022-10-17T12:33:05.608Z,0.60
2022-10-17T12:33:58.807Z,0.70
2022-10-17T12:34:57.807Z,0.60
2022-10-17T12:35:57.804Z,0.60
2022-10-17T12:36:57.770Z,0.60
2022-10-17T12:37:59.328Z,0.50
2022-10-17T12:38:57.804Z,0.80
2022-10-17T12:39:57.754Z,0.50
2022-10-17T12:40:57.716Z,0.60
2022-10-17T12:41:57.706Z,0.50
2022-10-17T12:42:57.698Z,0.50
2022-10-17T12:43:57.696Z,0.50
2022-10-17T12:44:57.727Z,0.60
2022-10-17T12:45:57.657Z,0.60
2022-10-17T12:46:57.661Z,0.50
2022-10-17T12:47:57.640Z,0.50
2022-10-17T12:48:57.617Z,0.60
2022-10-17T12:49:57.621Z,0.60
2022-10-17T12:51:12.187Z,0.50
2022-10-17T12:51:58.586Z,0.60
2022-10-17T12:52:57.569Z,0.50
2022-10-17T12:53:57.568Z,0.60
2022-10-17T12:55:10.840Z,0.60
2022-10-17T12:55:58.596Z,0.60
2022-10-17T12:56:57.516Z,0.70
2022-10-17T12:57:57.505Z,0.60
2022-10-17T12:58:57.498Z,0.40
2022-10-17T12:59:58.714Z,0.50
2022-10-17T13:01:22.471Z,0.50
2022-10-17T13:01:58.559Z,0.50
2022-10-17T13:02:57.448Z,0.50
2022-10-17T13:03:57.468Z,0.40
2022-10-17T13:04:57.405Z,0.40
2022-10-17T13:05:57.407Z,0.60
2022-10-17T13:06:57.397Z,0.50
2022-10-17T13:07:57.575Z,0.50
2022-10-17T13:09:02.435Z,0.50
2022-10-17T13:09:58.348Z,0.40
2022-10-17T13:10:57.333Z,0.50
2022-10-17T13:11:57.320Z,0.40
2022-10-17T13:12:57.305Z,0.50
2022-10-17T13:13:57.348Z,0.50
2022-10-17T13:14:57.278Z,0.50
2022-10-17T13:15:57.280Z,0.40
2022-10-17T13:16:57.255Z,0.40
2022-10-17T13:17:57.251Z,0.70
2022-10-17T13:18:57.232Z,0.40
2022-10-17T13:19:57.394Z,0.50
2022-10-17T13:20:57.196Z,0.50
2022-10-17T13:21:58.714Z,0.50
2022-10-17T13:22:57.167Z,0.40
2022-10-17T13:23:57.166Z,0.40
2022-10-17T13:24:57.155Z,0.50
2022-10-17T13:25:57.177Z,0.80
2022-10-17T13:26:57.126Z,0.50
2022-10-17T13:27:57.118Z,0.60
2022-10-17T13:28:57.261Z,0.50
2022-10-17T13:29:57.174Z,0.50
2022-10-17T13:30:57.697Z,0.50
2022-10-17T13:31:57.484Z,0.50
2022-10-17T13:32:57.137Z,0.70
2022-10-17T13:33:57.105Z,0.80
2022-10-17T13:34:57.026Z,0.60
2022-10-17T13:36:01.078Z,0.60
2022-10-17T13:36:56.994Z,0.50
2022-10-17T13:37:56.988Z,0.50
2022-10-17T13:38:56.965Z,0.50
2022-10-17T13:40:03.018Z,0.50
2022-10-17T13:41:06.131Z,0.50
2022-10-17T13:41:57.936Z,0.70
2022-10-17T13:42:56.947Z,0.60
2022-10-17T13:43:56.966Z,0.40
2022-10-17T13:44:56.885Z,0.50
2022-10-17T13:45:58.084Z,0.40
2022-10-17T13:46:56.907Z,0.50
2022-10-17T13:47:56.878Z,0.60
2022-10-17T13:48:56.864Z,0.40
2022-10-17T13:49:57.017Z,0.50
2022-10-17T13:51:00.370Z,0.60
2022-10-17T13:51:57.815Z,0.30
2022-10-17T13:52:56.792Z,0.40
2022-10-17T13:53:56.806Z,0.40
2022-10-17T13:54:56.784Z,0.50
2022-10-17T13:56:15.907Z,0.60
2022-10-17T13:56:57.827Z,0.50
2022-10-17T13:57:56.736Z,0.60
2022-10-17T13:58:56.714Z,0.30
2022-10-17T13:59:56.714Z,0.40
2022-10-17T14:00:56.762Z,0.40
2022-10-17T14:01:56.714Z,0.60
2022-10-17T14:02:56.665Z,0.50
2022-10-17T14:04:08.389Z,0.50
2022-10-17T14:05:16.269Z,0.50
2022-10-17T14:05:57.660Z,0.50
2022-10-17T14:06:56.604Z,0.30
2022-10-17T14:08:11.220Z,0.60
2022-10-17T14:08:57.594Z,0.70
2022-10-17T14:09:56.594Z,0.50
2022-10-17T14:10:56.615Z,0.80
2022-10-17T14:11:56.542Z,0.40
2022-10-17T14:12:56.524Z,0.40
2022-10-17T14:13:56.514Z,0.50
2022-10-17T14:15:10.038Z,0.40
2022-10-17T14:15:57.493Z,0.50
2022-10-17T14:16:56.495Z,0.40
2022-10-17T14:17:56.465Z,0.40
2022-10-17T14:18:56.471Z,0.50
2022-10-17T14:20:14.199Z,0.40
2022-10-17T14:21:37.232Z,0.40
2022-10-17T14:21:57.444Z,0.50
2022-10-17T14:23:57.434Z,0.30
2022-10-17T14:25:00.232Z,0.60
2022-10-17T14:25:57.366Z,0.50
2022-10-17T14:26:56.375Z,0.60
2022-10-17T14:27:56.336Z,0.40
2022-10-17T14:28:56.362Z,0.50
2022-10-17T14:29:56.403Z,0.60
2022-10-17T14:30:57.532Z,0.40
2022-10-17T14:31:56.283Z,0.50
2022-10-17T14:32:56.277Z,0.30
2022-10-17T14:33:56.333Z,0.50
2022-10-17T14:35:05.522Z,0.50
2022-10-17T14:35:57.303Z,0.50
2022-10-17T14:36:56.224Z,0.50
2022-10-17T14:37:56.215Z,0.70
2022-10-17T14:38:56.196Z,0.60
2022-10-17T14:39:56.185Z,0.60
2022-10-17T14:41:09.612Z,0.80
2022-10-17T14:42:00.752Z,0.80
2022-10-17T14:42:57.152Z,0.90
2022-10-17T14:43:56.167Z,0.80
2022-10-17T14:44:56.112Z,0.70
2022-10-17T14:45:56.166Z,0.80
2022-10-17T14:46:56.102Z,1.00
2022-10-17T14:47:56.232Z,0.70
2022-10-17T14:48:56.084Z,0.60
2022-10-17T14:49:56.053Z,0.90
2022-10-17T14:50:56.033Z,0.60
2022-10-17T14:51:57.029Z,0.80
2022-10-17T14:52:57.083Z,0.70
2022-10-17T14:53:56.004Z,0.70
2022-10-17T14:54:55.981Z,0.70
2022-10-17T14:55:55.979Z,0.70
2022-10-17T14:56:55.975Z,0.80
2022-10-17T14:57:55.950Z,0.70
2022-10-17T14:58:55.993Z,0.90
2022-10-17T14:59:56.065Z,0.70
2022-10-17T15:00:55.912Z,0.80
2022-10-17T15:01:55.909Z,0.70
2022-10-17T15:02:55.914Z,0.80
2022-10-17T15:03:55.872Z,1.00
2022-10-17T15:04:55.909Z,0.60
2022-10-17T15:05:55.849Z,0.70
2022-10-17T15:06:55.831Z,0.70
2022-10-17T15:07:55.813Z,0.80
2022-10-17T15:08:55.805Z,0.60
2022-10-17T15:09:55.801Z,0.80
2022-10-17T15:10:55.825Z,0.80
2022-10-17T15:11:55.764Z,0.90
2022-10-17T15:12:59.309Z,0.90
2022-10-17T15:13:56.768Z,0.90
2022-10-17T15:14:55.723Z,0.80
2022-10-17T15:15:55.721Z,0.70
2022-10-17T15:16:55.750Z,0.90
2022-10-17T15:17:55.701Z,0.70
2022-10-17T15:18:55.677Z,0.90
2022-10-17T15:19:55.661Z,0.70
2022-10-17T15:21:04.768Z,0.70
2022-10-17T15:21:56.641Z,0.90
2022-10-17T15:22:55.626Z,0.80
2022-10-17T15:23:55.623Z,0.80
2022-10-17T15:24:55.590Z,0.90
2022-10-17T15:25:55.590Z,0.70
2022-10-17T15:26:55.620Z,0.90
2022-10-17T15:27:55.560Z,0.90
2022-10-17T15:28:55.572Z,0.70
2022-10-17T15:29:55.530Z,0.70
2022-10-17T15:30:55.551Z,0.80
2022-10-17T15:31:55.517Z,0.80
2022-10-17T15:32:55.500Z,0.70
2022-10-17T15:33:55.483Z,0.70
2022-10-17T15:34:55.460Z,0.60
2022-10-17T15:35:55.543Z,0.80
2022-10-17T15:36:55.441Z,0.90
2022-10-17T15:37:55.434Z,1.10
2022-10-17T15:38:55.410Z,0.90
2022-10-17T15:39:55.431Z,0.70
2022-10-17T15:40:55.402Z,0.90
2022-10-17T15:41:55.571Z,0.80
2022-10-17T15:42:55.361Z,0.80
2022-10-17T15:43:55.399Z,0.70
2022-10-17T15:44:55.422Z,0.70
2022-10-17T15:45:55.330Z,0.80
2022-10-17T15:46:55.309Z,1.00
2022-10-17T15:47:55.375Z,0.80
2022-10-17T15:48:55.290Z,0.70
2022-10-17T15:49:55.340Z,0.60
2022-10-17T15:50:55.250Z,0.90
2022-10-17T15:51:55.495Z,0.70
2022-10-17T15:52:55.240Z,0.60
2022-10-17T15:53:55.260Z,0.70
2022-10-17T15:54:56.499Z,0.90
2022-10-17T15:55:55.220Z,0.80
2022-10-17T15:56:55.239Z,0.70
2022-10-17T15:57:55.180Z,0.60
2022-10-17T15:58:55.171Z,0.60
2022-10-17T15:59:55.139Z,0.80
2022-10-17T16:00:55.454Z,0.80
2022-10-17T16:01:55.128Z,1.00
2022-10-17T16:02:55.150Z,0.60
2022-10-17T16:03:55.090Z,0.90
2022-10-17T16:04:55.091Z,0.70
2022-10-17T16:05:55.069Z,0.80
2022-10-17T16:06:55.058Z,1.00
2022-10-17T16:07:55.038Z,0.80
2022-10-17T16:08:56.179Z,0.90
2022-10-17T16:09:55.015Z,0.90
2022-10-17T16:10:54.994Z,0.90
2022-10-17T16:11:55.100Z,1.00
2022-10-17T16:12:54.972Z,1.30
2022-10-17T16:13:54.965Z,0.80
2022-10-17T16:14:55.543Z,0.80
2022-10-17T16:15:54.970Z,0.80
2022-10-17T16:16:54.908Z,0.90
2022-10-17T16:17:54.908Z,1.10
2022-10-17T16:18:54.888Z,0.90
2022-10-17T16:19:54.878Z,0.80
2022-10-17T16:20:54.943Z,0.90
2022-10-17T16:21:54.871Z,0.70
2022-10-17T16:22:54.837Z,1.00
2022-10-17T16:23:54.828Z,1.00
2022-10-17T16:24:54.837Z,0.90
2022-10-17T16:25:54.798Z,1.00
2022-10-17T16:26:54.988Z,0.90
2022-10-17T16:27:54.774Z,0.60
2022-10-17T16:28:54.811Z,0.90
2022-10-17T16:29:54.760Z,1.00
2022-10-17T16:30:54.728Z,1.00
2022-10-17T16:31:54.745Z,0.70
2022-10-17T16:32:54.734Z,0.70
2022-10-17T16:33:54.697Z,0.70
2022-10-17T16:34:54.687Z,0.90
2022-10-17T16:35:54.673Z,0.70
2022-10-17T16:36:54.707Z,0.90
2022-10-17T16:37:54.650Z,1.00
2022-10-17T16:38:54.633Z,1.10
2022-10-17T16:39:54.629Z,0.90
2022-10-17T16:40:54.597Z,1.00
2022-10-17T16:41:57.694Z,0.90
2022-10-17T16:42:54.640Z,1.00
2022-10-17T16:43:54.566Z,0.90
2022-10-17T16:44:54.552Z,0.90
2022-10-17T16:45:54.551Z,0.90
2022-10-17T16:46:54.536Z,1.00
2022-10-17T16:47:54.526Z,0.80
2022-10-17T16:48:54.556Z,0.90
2022-10-17T16:49:54.495Z,1.00
2022-10-17T16:50:54.495Z,1.00
2022-10-17T16:51:54.469Z,0.90
2022-10-17T16:52:54.496Z,0.80
2022-10-17T16:53:54.454Z,0.90
2022-10-17T16:54:54.502Z,1.00
2022-10-17T16:55:54.406Z,0.80
2022-10-17T16:56:54.424Z,0.70
2022-10-17T16:57:54.388Z,0.70
2022-10-17T16:58:54.374Z,0.90
2022-10-17T16:59:54.364Z,0.80
2022-10-17T17:00:54.726Z,1.10
2022-10-17T17:01:54.362Z,1.00
2022-10-17T17:02:54.324Z,1.00
2022-10-17T17:03:54.304Z,1.00
2022-10-17T17:04:54.306Z,0.80
2022-10-17T17:05:54.346Z,0.80
2022-10-17T17:06:54.310Z,1.00
2022-10-17T17:07:54.341Z,0.50
2022-10-17T17:08:54.316Z,0.70
2022-10-17T17:09:54.226Z,0.80
2022-10-17T17:10:54.216Z,0.80
2022-10-17T17:11:54.225Z,0.70
2022-10-17T17:12:54.445Z,0.80
2022-10-17T17:13:54.186Z,0.80
2022-10-17T17:14:54.161Z,0.80
2022-10-17T17:15:54.143Z,0.80
2022-10-17T17:16:54.142Z,0.70
2022-10-17T17:17:55.766Z,0.80
2022-10-17T17:18:54.141Z,0.70
2022-10-17T17:19:54.128Z,0.90
2022-10-17T17:20:54.072Z,0.80
2022-10-17T17:21:54.189Z,1.00
2022-10-17T17:22:54.113Z,1.00
2022-10-17T17:23:54.031Z,0.80